Time;durP1;ratioP1;P1;durP2;ratioP2;P2;SDS_P1;SDS_P2;PMS_P1;PMS_P2;Temp;Humidity;BMP_temperature;BMP_pressure;BME280_temperature;BME280_humidity;BME280_pressure;Samples;Min_cycle;Max_cycle;Signal;HPM_P1;HPM_P2
2023/06/28 00:01:15;;;;;;;4.10;3.00;;;;;;;16.26;100.00;93772.78;5069509;28;20027;-70
2023/06/28 00:03:40;;;;;;;4.03;2.63;;;;;;;16.30;100.00;93778.44;5072823;28;20404;-71
2023/06/28 00:06:06;;;;;;;3.35;3.05;;;;;;;16.23;100.00;93764.44;5069072;28;20031;-74
2023/06/28 00:08:31;;;;;;;5.25;3.35;;;;;;;16.25;100.00;93752.59;5071320;28;20032;-70
2023/06/28 00:10:57;;;;;;;3.70;2.50;;;;;;;16.19;100.00;93734.88;5077322;28;20025;-73
2023/06/28 00:13:23;;;;;;;3.95;3.17;;;;;;;16.16;100.00;93738.81;5067840;28;20051;-71
2023/06/28 00:15:48;;;;;;;4.25;2.92;;;;;;;16.06;100.00;93713.84;5071928;28;20020;-71
2023/06/28 00:18:14;;;;;;;3.67;3.00;;;;;;;16.02;100.00;93708.16;5071981;28;20031;-71
2023/06/28 00:20:42;;;;;;;3.83;3.05;;;;;;;16.10;100.00;93723.75;5076409;28;20028;-73
2023/06/28 00:23:08;;;;;;;4.22;3.20;;;;;;;16.10;100.00;93721.09;5070147;28;20032;-73
2023/06/28 00:25:37;;;;;;;3.08;2.72;;;;;;;16.03;100.00;93709.78;5081473;28;20756;-71
2023/06/28 00:28:03;;;;;;;2.92;2.70;;;;;;;16.03;100.00;93723.88;5069835;28;20024;-73
2023/06/28 00:30:30;;;;;;;5.10;3.05;;;;;;;15.97;100.00;93716.00;5069650;28;20027;-71
2023/06/28 00:32:55;;;;;;;4.72;3.10;;;;;;;15.93;100.00;93693.59;5069928;28;20025;-73
2023/06/28 00:35:21;;;;;;;3.75;3.20;;;;;;;15.88;100.00;93671.16;5074918;28;20025;-73
2023/06/28 00:37:46;;;;;;;4.10;3.53;;;;;;;15.87;100.00;93674.03;5064849;28;20080;-72
2023/06/28 00:40:12;;;;;;;3.00;2.80;;;;;;;15.83;100.00;93667.56;5083992;28;20045;-72
2023/06/28 00:42:37;;;;;;;5.05;3.40;;;;;;;15.84;100.00;93677.94;5072517;28;20083;-73
2023/06/28 00:45:03;;;;;;;3.38;2.85;;;;;;;15.76;100.00;93660.47;5065836;28;20086;-72
2023/06/28 00:47:30;;;;;;;3.85;3.08;;;;;;;15.73;100.00;93660.94;5067210;28;20025;-72
2023/06/28 00:49:56;;;;;;;3.10;2.90;;;;;;;15.71;100.00;93655.03;5066697;28;20020;-72
2023/06/28 00:52:22;;;;;;;5.15;3.40;;;;;;;15.71;100.00;93654.25;5068360;28;20112;-73
2023/06/28 00:54:48;;;;;;;6.30;3.05;;;;;;;15.74;100.00;93667.84;5074890;28;20040;-73
2023/06/28 00:57:13;;;;;;;3.75;2.65;;;;;;;15.68;100.00;93675.88;5080930;28;20472;-72
2023/06/28 00:59:40;;;;;;;4.10;2.90;;;;;;;15.61;100.00;93644.97;5072111;28;20020;-72
2023/06/28 01:02:05;;;;;;;5.80;2.90;;;;;;;15.62;100.00;93674.97;5079659;28;20033;-72
2023/06/28 01:04:31;;;;;;;6.55;3.10;;;;;;;15.60;100.00;93655.81;5073443;28;20093;-72
2023/06/28 01:06:59;;;;;;;3.72;3.00;;;;;;;15.59;100.00;93656.84;5073719;28;20025;-74
2023/06/28 01:09:27;;;;;;;5.35;2.95;;;;;;;15.57;100.00;93665.00;5075815;28;20036;-73
2023/06/28 01:11:55;;;;;;;3.72;3.28;;;;;;;15.57;100.00;93654.41;5074708;28;20021;-73
2023/06/28 01:14:23;;;;;;;4.50;3.10;;;;;;;15.58;100.00;93636.63;5067488;28;20016;-72
2023/06/28 01:16:54;;;;;;;4.28;3.13;;;;;;;15.58;100.00;93633.97;5072621;28;20036;-72
2023/06/28 01:19:22;;;;;;;4.53;3.10;;;;;;;15.50;100.00;93621.88;5070403;28;20020;-73
2023/06/28 01:21:50;;;;;;;3.35;3.03;;;;;;;15.42;100.00;93617.66;5074069;28;20025;-72
2023/06/28 01:24:17;;;;;;;3.28;2.88;;;;;;;15.42;100.00;93624.81;5069768;28;20024;-73
2023/06/28 01:26:43;;;;;;;5.00;3.15;;;;;;;15.42;100.00;93611.53;5075782;28;20541;-72
2023/06/28 01:29:08;;;;;;;6.18;3.35;;;;;;;15.34;100.00;93570.22;5075594;28;20044;-72
2023/06/28 01:31:36;;;;;;;7.07;2.80;;;;;;;15.31;100.00;93586.59;5076795;28;20016;-72
2023/06/28 01:34:02;;;;;;;2.63;2.42;;;;;;;15.23;100.00;93600.16;5079097;28;20055;-72
2023/06/28 01:36:29;;;;;;;3.30;2.60;;;;;;;15.22;100.00;93598.53;5071679;28;20032;-72
2023/06/28 01:38:56;;;;;;;4.72;3.10;;;;;;;15.22;100.00;93595.88;5072315;28;20043;-73
2023/06/28 01:41:23;;;;;;;3.42;2.90;;;;;;;15.22;100.00;93594.03;5070090;28;20039;-72
2023/06/28 01:43:48;;;;;;;3.83;2.90;;;;;;;15.21;100.00;93595.06;5066897;28;20424;-72
2023/06/28 01:46:14;;;;;;;3.45;3.15;;;;;;;15.21;100.00;93591.63;5074549;28;20144;-72
2023/06/28 01:48:39;;;;;;;3.15;2.78;;;;;;;15.18;100.00;93585.75;5069503;28;20032;-73
2023/06/28 01:51:05;;;;;;;3.70;3.40;;;;;;;15.20;100.00;93587.34;5069209;28;20028;-72
2023/06/28 01:53:31;;;;;;;3.90;3.00;;;;;;;15.22;100.00;93577.34;5079393;28;20479;-73
2023/06/28 01:55:56;;;;;;;3.97;3.08;;;;;;;15.27;100.00;93606.63;5074817;28;20116;-73
2023/06/28 01:58:22;;;;;;;6.82;3.42;;;;;;;15.23;100.00;93605.47;5075188;28;20024;-72
2023/06/28 02:00:47;;;;;;;4.15;3.05;;;;;;;15.18;100.00;93603.47;5065796;28;20020;-73
2023/06/28 02:03:13;;;;;;;4.07;3.10;;;;;;;15.11;100.00;93608.84;5070876;28;20028;-72
2023/06/28 02:05:40;;;;;;;4.45;3.30;;;;;;;15.04;100.00;93593.03;5065889;28;20028;-72
2023/06/28 02:08:05;;;;;;;4.82;2.83;;;;;;;15.01;100.00;93566.16;5066607;28;20160;-72
2023/06/28 02:10:31;;;;;;;3.58;3.15;;;;;;;14.96;100.00;93544.81;5076436;28;20059;-72
2023/06/28 02:12:56;;;;;;;4.15;3.08;;;;;;;14.90;100.00;93549.97;5073359;28;20095;-72
2023/06/28 02:15:22;;;;;;;3.80;2.97;;;;;;;14.88;100.00;93557.31;5074209;28;20412;-72
2023/06/28 02:17:50;;;;;;;3.30;2.92;;;;;;;14.89;100.00;93574.84;5062513;28;20106;-72
2023/06/28 02:20:15;;;;;;;5.32;3.15;;;;;;;14.95;100.00;93582.94;5069687;28;20028;-72
2023/06/28 02:22:41;;;;;;;5.00;3.08;;;;;;;14.88;100.00;93562.63;5072541;28;20023;-72
2023/06/28 02:25:07;;;;;;;6.78;3.25;;;;;;;14.86;100.00;93551.44;5076365;28;20105;-72
2023/06/28 02:27:32;;;;;;;6.43;3.22;;;;;;;14.82;100.00;93544.16;5068452;28;20031;-72
2023/06/28 02:29:58;;;;;;;4.60;3.38;;;;;;;14.72;100.00;93544.69;5077249;28;20029;-72
2023/06/28 02:32:30;;;;;;;4.22;3.35;;;;;;;14.72;100.00;93553.44;5075834;28;20023;-72
2023/06/28 02:34:56;;;;;;;6.35;3.13;;;;;;;14.75;100.00;93562.78;5070441;28;20019;-72
2023/06/28 02:37:21;;;;;;;5.18;3.50;;;;;;;14.75;100.00;93557.47;5066294;28;20036;-72
2023/06/28 02:39:47;;;;;;;5.25;3.20;;;;;;;14.76;100.00;93548.50;5068361;28;20036;-72
2023/06/28 02:42:12;;;;;;;7.78;3.58;;;;;;;14.73;100.00;93525.13;5076781;28;20044;-72
2023/06/28 02:44:37;;;;;;;5.00;3.40;;;;;;;14.71;100.00;93520.03;5078460;28;20103;-72
2023/06/28 02:47:03;;;;;;;3.58;3.10;;;;;;;14.79;100.00;93520.75;5060406;28;20031;-73
2023/06/28 02:49:28;;;;;;;4.53;3.30;;;;;;;14.78;100.00;93530.56;5066114;28;20077;-72
2023/06/28 02:51:57;;;;;;;3.58;3.22;;;;;;;14.83;100.00;93540.50;5061385;28;20092;-72
2023/06/28 02:54:22;;;;;;;4.68;3.17;;;;;;;14.80;100.00;93557.63;5064806;28;20017;-72
2023/06/28 02:56:47;;;;;;;5.55;3.20;;;;;;;14.81;100.00;93579.59;5073613;28;20017;-73
2023/06/28 02:59:13;;;;;;;3.70;3.40;;;;;;;14.67;100.00;93553.25;5072187;28;20446;-72
2023/06/28 03:01:38;;;;;;;3.53;3.20;;;;;;;14.55;100.00;93520.56;5067217;28;20024;-72
2023/06/28 03:04:04;;;;;;;4.78;3.03;;;;;;;14.47;100.00;93505.78;5063057;28;20020;-72
2023/06/28 03:06:30;;;;;;;6.05;3.65;;;;;;;14.41;100.00;93473.06;5072159;28;20396;-72
2023/06/28 03:08:55;;;;;;;5.88;3.58;;;;;;;14.36;100.00;93450.94;5065773;28;20093;-72
2023/06/28 03:11:20;;;;;;;3.20;2.90;;;;;;;14.30;100.00;93460.56;5073074;28;20220;-72
2023/06/28 03:13:46;;;;;;;3.53;3.13;;;;;;;14.24;100.00;93517.81;5079713;28;20025;-72
2023/06/28 03:16:11;;;;;;;5.63;2.85;;;;;;;14.26;100.00;93542.25;5087371;28;20107;-72
2023/06/28 03:18:37;;;;;;;6.07;3.75;;;;;;;14.28;100.00;93505.78;5068436;28;20518;-72
2023/06/28 03:21:03;;;;;;;3.55;3.25;;;;;;;14.26;100.00;93480.56;5061931;28;20078;-72
2023/06/28 03:23:28;;;;;;;6.38;3.50;;;;;;;14.14;100.00;93457.44;5063870;28;20516;-72
2023/06/28 03:25:54;;;;;;;5.75;3.42;;;;;;;14.07;100.00;93419.69;5072215;28;20036;-72
2023/06/28 03:28:19;;;;;;;3.45;3.13;;;;;;;14.11;100.00;93404.19;5066586;28;20095;-72
2023/06/28 03:30:45;;;;;;;4.00;3.58;;;;;;;14.08;100.00;93384.25;5060329;28;20489;-72
2023/06/28 03:33:10;;;;;;;3.53;3.10;;;;;;;14.03;100.00;93374.31;5070712;28;20020;-72
2023/06/28 03:35:36;;;;;;;5.45;3.58;;;;;;;13.97;100.00;93361.19;5074618;28;20023;-72
2023/06/28 03:38:01;;;;;;;4.45;3.42;;;;;;;13.98;100.00;93378.69;5070728;28;20021;-72
2023/06/28 03:40:29;;;;;;;3.75;3.05;;;;;;;14.00;100.00;93371.34;5072387;28;20025;-72
2023/06/28 03:42:54;;;;;;;5.22;3.15;;;;;;;14.07;100.00;93400.38;5062681;28;20045;-72
2023/06/28 03:45:20;;;;;;;5.00;2.67;;;;;;;14.15;100.00;93421.22;5066795;28;20400;-72
2023/06/28 03:47:47;;;;;;;7.40;3.50;;;;;;;14.16;100.00;93421.03;5066912;28;20027;-72
2023/06/28 03:50:13;;;;;;;6.20;3.33;;;;;;;14.14;100.00;93415.13;5061715;28;20021;-72
2023/06/28 03:52:38;;;;;;;9.93;3.72;;;;;;;14.18;100.00;93431.38;5064399;28;20021;-71
2023/06/28 03:55:04;;;;;;;3.80;3.40;;;;;;;14.19;100.00;93443.56;5070129;28;20039;-72
2023/06/28 03:57:30;;;;;;;6.57;3.97;;;;;;;14.24;100.00;93451.66;5072118;28;20028;-72
2023/06/28 03:59:55;;;;;;;4.35;3.20;;;;;;;14.22;100.00;93448.41;5072038;28;20476;-73
2023/06/28 04:02:21;;;;;;;4.85;3.10;;;;;;;14.19;100.00;93448.88;5060947;28;20129;-71
2023/06/28 04:04:46;;;;;;;5.28;3.67;;;;;;;14.18;100.00;93442.78;5063201;28;20017;-72
2023/06/28 04:07:12;;;;;;;5.03;3.38;;;;;;;14.08;100.00;93431.88;5063945;28;20024;-72
2023/06/28 04:09:38;;;;;;;5.60;3.30;;;;;;;13.94;100.00;93425.91;5072326;28;20027;-73
2023/06/28 04:12:04;;;;;;;6.03;3.63;;;;;;;13.99;100.00;93404.91;5073579;28;20012;-72
2023/06/28 04:14:29;;;;;;;5.78;3.22;;;;;;;13.96;100.00;93391.31;5071285;28;20462;-71
2023/06/28 04:16:55;;;;;;;5.05;3.53;;;;;;;13.93;100.00;93376.69;5068730;28;20051;-72
2023/06/28 04:19:20;;;;;;;6.78;3.75;;;;;;;13.99;100.00;93365.22;5070905;28;20100;-72
2023/06/28 04:21:45;;;;;;;8.45;3.80;;;;;;;13.98;100.00;93360.97;5071409;28;20108;-71
2023/06/28 04:24:11;;;;;;;3.58;3.22;;;;;;;14.02;100.00;93330.38;5073164;28;20021;-72
2023/06/28 04:26:37;;;;;;;4.53;3.72;;;;;;;14.11;100.00;93325.59;5079537;28;20024;-72
2023/06/28 04:29:02;;;;;;;16.55;4.25;;;;;;;14.12;100.00;93323.78;5072896;28;20028;-71
2023/06/28 04:31:28;;;;;;;10.18;3.83;;;;;;;14.08;100.00;93296.94;5073746;28;20027;-72
2023/06/28 04:33:57;;;;;;;7.53;3.53;;;;;;;14.06;100.00;93292.94;5072266;28;20012;-71
2023/06/28 04:36:25;;;;;;;12.82;3.97;;;;;;;14.07;100.00;93302.47;5068688;28;20073;-72
2023/06/28 04:38:52;;;;;;;7.13;3.28;;;;;;;14.05;100.00;93315.91;5068658;28;20040;-72
2023/06/28 04:41:19;;;;;;;8.27;3.95;;;;;;;14.00;100.00;93344.88;5087993;28;20034;-72
2023/06/28 04:43:45;;;;;;;5.90;3.47;;;;;;;14.06;100.00;93322.81;5071991;28;20041;-72
2023/06/28 04:46:11;;;;;;;6.80;3.45;;;;;;;14.04;100.00;93288.66;5064851;28;20108;-71
2023/06/28 04:48:38;;;;;;;5.22;4.15;;;;;;;14.07;100.00;93282.09;5066632;28;20094;-72
2023/06/28 04:51:03;;;;;;;6.05;4.50;;;;;;;14.06;100.00;93275.19;5076635;28;20458;-72
2023/06/28 04:53:28;;;;;;;6.85;4.10;;;;;;;14.09;100.00;93256.22;5069135;28;20035;-72
2023/06/28 04:55:54;;;;;;;5.40;4.35;;;;;;;14.17;100.00;93255.13;5070784;28;20028;-72
2023/06/28 04:58:19;;;;;;;6.15;4.57;;;;;;;14.20;100.00;93256.53;5081561;28;20085;-72
2023/06/28 05:00:45;;;;;;;8.30;4.07;;;;;;;14.26;100.00;93252.97;5072055;28;20066;-71
2023/06/28 05:03:14;;;;;;;4.57;4.10;;;;;;;14.30;100.00;93243.53;5063483;28;20052;-72
2023/06/28 05:05:40;;;;;;;5.22;3.80;;;;;;;14.35;100.00;93245.53;5073011;28;20032;-72
2023/06/28 05:08:07;;;;;;;4.97;3.88;;;;;;;14.42;100.00;93257.63;5076934;28;20036;-72
2023/06/28 05:10:33;;;;;;;4.63;3.60;;;;;;;14.50;100.00;93231.88;5076603;28;20028;-71
2023/06/28 05:12:58;;;;;;;3.53;3.20;;;;;;;14.55;100.00;93219.56;5068132;28;20025;-72
2023/06/28 05:15:24;;;;;;;5.80;3.97;;;;;;;14.66;100.00;93202.09;5069434;28;20020;-72
2023/06/28 05:17:50;;;;;;;5.22;3.47;;;;;;;14.83;100.00;93209.41;5063220;28;20029;-71
2023/06/28 05:20:15;;;;;;;4.10;3.20;;;;;;;14.86;100.00;93248.66;5069128;28;20030;-72
2023/06/28 05:22:46;;;;;;;6.40;3.80;;;;;;;14.93;100.00;93261.81;5070842;28;20028;-71
2023/06/28 05:25:11;;;;;;;7.72;3.88;;;;;;;15.07;100.00;93273.00;5074122;28;20023;-72
2023/06/28 05:27:37;;;;;;;4.97;3.47;;;;;;;15.20;100.00;93303.78;5072242;28;20025;-71
2023/06/28 05:30:04;;;;;;;7.05;3.92;;;;;;;15.31;100.00;93354.16;5068256;28;20080;-72
2023/06/28 05:32:29;;;;;;;6.22;3.63;;;;;;;15.37;100.00;93408.09;5068722;28;20038;-71
2023/06/28 05:34:54;;;;;;;5.15;4.05;;;;;;;15.39;100.00;93418.47;5069420;28;20025;-71
2023/06/28 05:37:20;;;;;;;6.57;3.63;;;;;;;15.45;100.00;93414.88;5075168;28;20104;-71
2023/06/28 05:39:45;;;;;;;4.03;3.60;;;;;;;15.51;100.00;93421.13;5074126;28;20035;-71
2023/06/28 05:42:10;;;;;;;7.93;3.90;;;;;;;15.64;100.00;93442.16;5065691;28;20040;-71
2023/06/28 05:44:36;;;;;;;6.50;3.47;;;;;;;15.70;100.00;93446.53;5057677;28;20029;-71
2023/06/28 05:47:01;;;;;;;3.80;3.50;;;;;;;15.72;100.00;93417.94;5077280;28;20185;-71
2023/06/28 05:49:27;;;;;;;4.78;3.35;;;;;;;15.83;100.00;93431.44;5072226;28;20028;-71
2023/06/28 05:51:52;;;;;;;4.00;3.42;;;;;;;15.90;100.00;93424.19;5069834;28;20031;-71
2023/06/28 05:54:18;;;;;;;4.13;3.72;;;;;;;15.92;100.00;93430.09;5066655;28;20126;-71
2023/06/28 05:56:43;;;;;;;4.28;3.20;;;;;;;15.98;100.00;93463.66;5075332;28;20048;-71
2023/06/28 05:59:09;;;;;;;4.35;3.90;;;;;;;15.98;100.00;93497.34;5066813;28;20146;-71
2023/06/28 06:01:34;;;;;;;5.10;3.45;;;;;;;16.06;100.00;93490.91;5060889;28;20107;-71
2023/06/28 06:03:59;;;;;;;4.43;4.00;;;;;;;16.13;100.00;93500.34;5070034;28;20025;-71
2023/06/28 06:06:25;;;;;;;4.13;3.47;;;;;;;16.26;100.00;93499.34;5077387;28;20098;-72
2023/06/28 06:08:50;;;;;;;4.70;3.90;;;;;;;16.37;100.00;93518.97;5075275;28;20130;-71
2023/06/28 06:11:16;;;;;;;6.53;4.10;;;;;;;16.52;100.00;93534.41;5077346;28;20479;-71
2023/06/28 06:13:41;;;;;;;4.13;3.80;;;;;;;16.62;100.00;93525.88;5072127;28;20439;-71
2023/06/28 06:16:07;;;;;;;7.07;3.92;;;;;;;16.63;100.00;93503.56;5083315;28;20048;-71
2023/06/28 06:18:36;;;;;;;4.45;4.05;;;;;;;16.79;100.00;93525.94;5080854;28;20384;-72
2023/06/28 06:21:01;;;;;;;7.35;4.25;;;;;;;16.86;100.00;93547.88;5076539;28;20031;-71
2023/06/28 06:23:27;;;;;;;6.40;4.80;;;;;;;16.95;100.00;93558.16;5070195;28;20021;-71
2023/06/28 06:25:52;;;;;;;8.88;4.85;;;;;;;17.03;100.00;93508.16;5079245;28;20040;-71
2023/06/28 06:28:17;;;;;;;7.03;3.97;;;;;;;17.12;100.00;93551.09;5064084;28;20024;-71
2023/06/28 06:30:49;;;;;;;5.88;3.88;;;;;;;17.26;100.00;93614.66;5066378;28;20069;-71
2023/06/28 06:33:17;;;;;;;6.60;4.00;;;;;;;17.36;100.00;93630.00;5077138;28;20546;-71
2023/06/28 06:35:43;;;;;;;6.30;4.10;;;;;;;17.53;100.00;93614.94;5077628;28;20051;-71
2023/06/28 06:38:08;;;;;;;4.43;3.90;;;;;;;17.85;100.00;93675.66;5072327;28;20012;-71
2023/06/28 06:40:33;;;;;;;3.92;3.63;;;;;;;18.14;100.00;93731.66;5071811;28;20024;-71
2023/06/28 06:42:59;;;;;;;6.00;3.90;;;;;;;18.21;100.00;93728.81;5071557;28;20040;-71
2023/06/28 06:45:24;;;;;;;4.97;3.65;;;;;;;18.40;100.00;93696.66;5061593;28;20033;-71
2023/06/28 06:47:50;;;;;;;5.35;4.05;;;;;;;18.74;100.00;93670.06;5063985;28;20070;-71
2023/06/28 06:50:17;;;;;;;4.97;3.63;;;;;;;18.92;100.00;93772.19;5063723;28;20033;-71
2023/06/28 06:52:43;;;;;;;4.05;3.42;;;;;;;19.06;100.00;93804.69;5068751;28;20024;-69
2023/06/28 06:55:08;;;;;;;3.58;3.28;;;;;;;19.43;100.00;93831.69;5069603;28;20709;-70
2023/06/28 06:57:34;;;;;;;4.50;3.53;;;;;;;19.88;100.00;93842.50;5073832;28;20384;-69
2023/06/28 06:59:59;;;;;;;3.35;3.08;;;;;;;20.13;100.00;93886.66;5062544;28;20028;-70
2023/06/28 07:02:25;;;;;;;5.07;3.20;;;;;;;20.26;100.00;93902.34;5072462;28;20028;-71
2023/06/28 07:04:50;;;;;;;4.70;3.53;;;;;;;20.58;100.00;93947.13;5072113;28;20013;-71
2023/06/28 07:07:16;;;;;;;7.03;2.90;;;;;;;20.74;100.00;93958.03;5066335;28;20017;-70
2023/06/28 07:09:41;;;;;;;3.03;2.83;;;;;;;21.15;100.00;94057.53;5077144;28;20032;-70
2023/06/28 07:12:07;;;;;;;3.50;3.20;;;;;;;21.13;100.00;93928.56;5062506;28;20083;-68
2023/06/28 07:14:33;;;;;;;5.93;3.30;;;;;;;21.41;100.00;94009.66;5071408;28;20020;-69
2023/06/28 07:16:58;;;;;;;3.78;2.50;;;;;;;21.56;100.00;94041.13;5068027;28;20028;-69
2023/06/28 07:19:24;;;;;;;4.60;2.63;;;;;;;21.58;100.00;94135.41;5069542;28;20082;-69
2023/06/28 07:21:49;;;;;;;6.53;3.05;;;;;;;21.85;100.00;94101.72;5065568;28;20032;-69
2023/06/28 07:24:14;;;;;;;4.60;2.92;;;;;;;22.28;100.00;94142.88;5067650;28;20124;-68
2023/06/28 07:26:40;;;;;;;4.82;2.65;;;;;;;22.30;100.00;94225.72;5074465;28;20059;-69
2023/06/28 07:29:05;;;;;;;6.78;2.75;;;;;;;22.07;100.00;94224.91;5075269;28;20027;-69
2023/06/28 07:31:30;;;;;;;3.53;2.53;;;;;;;21.95;100.00;94200.16;5070411;28;20037;-69
2023/06/28 07:33:57;;;;;;;3.97;2.83;;;;;;;22.40;100.00;94187.47;5067401;28;20008;-69
2023/06/28 07:36:22;;;;;;;5.72;2.85;;;;;;;22.73;100.00;94218.66;5061891;28;20056;-70
2023/06/28 07:38:49;;;;;;;2.75;2.45;;;;;;;23.09;100.00;94198.56;5069461;28;20456;-69
2023/06/28 07:41:15;;;;;;;6.15;3.08;;;;;;;23.56;100.00;94237.31;5072667;28;20023;-69
2023/06/28 07:43:40;;;;;;;6.38;2.70;;;;;;;23.73;100.00;94232.53;5074300;28;20096;-69
2023/06/28 07:46:06;;;;;;;8.95;2.75;;;;;;;24.15;100.00;94275.78;5074581;28;20053;-69
2023/06/28 07:48:31;;;;;;;4.75;2.85;;;;;;;24.08;100.00;94292.13;5072432;28;20389;-70
2023/06/28 07:50:57;;;;;;;3.65;2.58;;;;;;;24.07;100.00;94244.03;5071987;28;20025;-70
2023/06/28 07:53:23;;;;;;;3.78;2.45;;;;;;;23.80;100.00;94244.97;5067665;28;20778;-69
2023/06/28 07:55:49;;;;;;;3.08;2.38;;;;;;;23.98;100.00;94203.38;5068899;28;20095;-70
2023/06/28 07:58:14;;;;;;;4.55;2.60;;;;;;;24.35;100.00;94304.63;5071315;28;20488;-70
2023/06/28 08:00:40;;;;;;;3.30;2.70;;;;;;;25.14;100.00;94249.91;5068293;28;20036;-70
2023/06/28 08:03:05;;;;;;;7.65;2.80;;;;;;;25.09;100.00;94264.22;5062931;28;20084;-70
2023/06/28 08:05:30;;;;;;;3.88;2.58;;;;;;;24.65;100.00;94272.69;5069157;28;20031;-70
2023/06/28 08:07:56;;;;;;;5.05;3.10;;;;;;;24.71;100.00;94237.47;5070575;28;20035;-69
2023/06/28 08:10:22;;;;;;;3.05;2.75;;;;;;;25.38;100.00;94352.53;5067037;28;20025;-69
2023/06/28 08:12:48;;;;;;;3.42;2.70;;;;;;;25.80;100.00;94325.63;5068614;28;20564;-70
2023/06/28 08:15:13;;;;;;;3.60;2.70;;;;;;;26.03;100.00;94388.91;5070497;28;20013;-69
2023/06/28 08:17:39;;;;;;;4.05;2.53;;;;;;;26.11;100.00;94399.19;5072269;28;20041;-69
2023/06/28 08:20:06;;;;;;;4.10;2.88;;;;;;;25.98;100.00;94365.50;5074651;28;20033;-70
2023/06/28 08:22:31;;;;;;;4.68;2.47;;;;;;;25.96;100.00;94393.78;5070636;28;20102;-70
2023/06/28 08:24:57;;;;;;;4.30;2.65;;;;;;;26.38;100.00;94397.25;5073909;28;20028;-69
2023/06/28 08:27:22;;;;;;;5.55;2.40;;;;;;;26.29;100.00;94438.28;5076710;28;20163;-69
2023/06/28 08:29:47;;;;;;;3.45;2.53;;;;;;;26.20;100.00;94358.19;5069642;28;20035;-70
2023/06/28 08:32:13;;;;;;;3.90;2.78;;;;;;;26.66;100.00;94368.03;5069696;28;20037;-69
2023/06/28 08:34:38;;;;;;;5.25;2.90;;;;;;;26.31;100.00;94365.19;5071562;28;20427;-71
2023/06/28 08:37:04;;;;;;;3.97;2.80;;;;;;;26.36;100.00;94419.13;5064228;28;20055;-70
2023/06/28 08:39:30;;;;;;;5.30;3.20;;;;;;;26.25;100.00;94391.34;5061101;28;20021;-70
2023/06/28 08:41:56;;;;;;;4.78;2.50;;;;;;;26.08;100.00;94445.53;5065347;28;20053;-70
2023/06/28 08:44:25;;;;;;;2.92;2.50;;;;;;;26.10;100.00;94394.88;5067651;28;20031;-70
2023/06/28 08:46:51;;;;;;;3.28;2.92;;;;;;;26.06;100.00;94336.34;5067855;28;20111;-70
2023/06/28 08:49:18;;;;;;;3.30;2.40;;;;;;;26.67;100.00;94385.84;5072310;28;20029;-70
2023/06/28 08:51:44;;;;;;;3.53;2.50;;;;;;;26.36;100.00;94396.72;5066680;28;20033;-70
2023/06/28 08:54:14;;;;;;;4.40;2.67;;;;;;;26.45;100.00;94403.97;5060879;28;20025;-70
2023/06/28 08:56:41;;;;;;;4.00;2.65;;;;;;;26.22;100.00;94453.13;5068020;28;20519;-70
2023/06/28 08:59:08;;;;;;;6.18;2.95;;;;;;;26.15;100.00;94423.69;5058387;28;20020;-70
2023/06/28 09:01:34;;;;;;;6.30;2.35;;;;;;;27.05;100.00;94458.34;5066214;28;20020;-70
2023/06/28 09:04:00;;;;;;;3.88;2.67;;;;;;;26.88;100.00;94489.16;5066446;28;20029;-70
2023/06/28 09:06:27;;;;;;;3.33;2.63;;;;;;;27.14;100.00;94486.38;5068708;28;20404;-70
2023/06/28 09:08:54;;;;;;;6.05;2.70;;;;;;;27.32;100.00;94539.00;5067897;28;20100;-70
2023/06/28 09:11:19;;;;;;;4.78;3.08;;;;;;;27.70;100.00;94552.88;5068320;28;20438;-69
2023/06/28 09:13:45;;;;;;;5.57;2.50;;;;;;;27.98;100.00;94612.78;5071716;28;20090;-70
2023/06/28 09:16:10;;;;;;;3.28;2.65;;;;;;;27.83;100.00;94642.59;5068682;28;20025;-70
2023/06/28 09:18:36;;;;;;;4.85;2.50;;;;;;;27.77;100.00;94563.41;5071111;28;20036;-69
2023/06/28 09:21:02;;;;;;;2.85;2.50;;;;;;;27.93;100.00;94537.06;5069584;28;20028;-69
2023/06/28 09:23:30;;;;;;;8.88;2.67;;;;;;;27.81;100.00;94490.66;5073042;28;20039;-69
2023/06/28 09:25:56;;;;;;;3.10;2.80;;;;;;;27.65;100.00;94512.38;5074401;28;20020;-69
2023/06/28 09:28:32;;;;;;;5.10;3.40;;;;;;;27.83;100.00;94558.78;5074593;28;20519;-69
2023/06/28 09:30:58;;;;;;;8.05;3.42;;;;;;;27.93;100.00;94561.41;5059348;28;20032;-69
2023/06/28 09:33:23;;;;;;;5.50;2.65;;;;;;;27.33;100.00;94554.13;5067729;28;20024;-69
2023/06/28 09:36:00;;;;;;;4.72;3.20;;;;;;;27.48;100.00;94574.03;5066293;28;20029;-69
2023/06/28 09:38:27;;;;;;;3.65;2.75;;;;;;;27.60;100.00;94607.00;5073367;28;20024;-70
2023/06/28 09:40:56;;;;;;;2.95;2.42;;;;;;;27.49;100.00;94600.81;5073194;28;20031;-70
2023/06/28 09:43:23;;;;;;;2.70;2.50;;;;;;;28.12;100.00;94658.13;5060532;28;20053;-70
2023/06/28 09:45:48;;;;;;;4.13;3.15;;;;;;;27.76;100.00;94724.00;5071445;28;20035;-70
2023/06/28 09:48:14;;;;;;;3.63;2.83;;;;;;;27.39;100.00;94604.34;5073260;28;20024;-70
2023/06/28 09:50:44;;;;;;;4.88;3.15;;;;;;;27.64;100.00;94635.09;5060506;28;20043;-70
2023/06/28 09:53:15;;;;;;;3.20;2.72;;;;;;;28.24;100.00;94674.06;5063629;28;20092;-69
2023/06/28 09:55:42;;;;;;;4.65;2.72;;;;;;;28.78;100.00;94702.13;5064879;28;20123;-70
2023/06/28 09:58:11;;;;;;;5.80;2.67;;;;;;;28.16;100.00;94732.25;5069916;28;20104;-69
2023/06/28 10:00:41;;;;;;;2.90;2.50;;;;;;;28.24;100.00;94680.28;5066679;28;20020;-70
2023/06/28 10:03:09;;;;;;;4.05;2.92;;;;;;;28.05;100.00;94768.53;5065651;28;20024;-71
2023/06/28 10:05:36;;;;;;;3.63;2.60;;;;;;;28.44;100.00;94836.31;5061815;28;20110;-70
2023/06/28 10:08:15;;;;;;;2.83;2.33;;;;;;;28.80;100.00;94984.31;5072184;28;20024;-70
2023/06/28 10:10:42;;;;;;;6.20;2.72;;;;;;;29.00;100.00;94998.88;5066858;28;20040;-69
2023/06/28 10:13:16;;;;;;;4.20;2.60;;;;;;;29.22;100.00;95054.63;5064288;28;20032;-70
2023/06/28 10:15:56;;;;;;;3.40;3.05;;;;;;;29.57;100.00;95120.69;5069817;28;20028;-70
2023/06/28 10:18:22;;;;;;;4.20;2.65;;;;;;;29.42;100.00;95121.56;5065620;28;20051;-71
2023/06/28 10:20:48;;;;;;;3.63;2.58;;;;;;;29.14;100.00;95121.88;5065158;28;20075;-70
2023/06/28 10:23:15;;;;;;;2.60;2.38;;;;;;;29.14;100.00;95148.97;5059566;28;20024;-69
2023/06/28 10:25:44;;;;;;;4.35;2.80;;;;;;;29.08;100.00;95155.47;5062946;28;20550;-68
2023/06/28 10:28:10;;;;;;;5.05;2.50;;;;;;;28.95;100.00;95262.47;5059326;28;20099;-67
2023/06/28 10:30:38;;;;;;;4.43;2.50;;;;;;;28.90;100.00;95210.22;5073312;28;20071;-69
2023/06/28 10:33:05;;;;;;;2.88;2.60;;;;;;;28.94;100.00;95241.09;5073323;28;20085;-67
2023/06/28 10:35:30;;;;;;;2.92;2.63;;;;;;;28.89;100.00;95317.72;5073653;28;20027;-67
2023/06/28 10:37:57;;;;;;;3.83;2.13;;;;;;;28.82;100.00;95322.59;5074180;28;20554;-68
2023/06/28 10:40:23;;;;;;;3.47;2.50;;;;;;;28.91;100.00;95298.50;5070573;28;20448;-67
2023/06/28 10:42:49;;;;;;;6.95;3.22;;;;;;;29.07;100.00;95319.13;5065725;28;20472;-68
2023/06/28 10:45:14;;;;;;;2.83;2.40;;;;;;;29.22;100.00;95325.63;5066107;28;20080;-69
2023/06/28 10:47:54;;;;;;;4.78;2.78;;;;;;;29.45;100.00;95343.31;5064884;28;20043;-69
2023/06/28 10:50:21;;;;;;;5.55;2.88;;;;;;;28.36;100.00;95299.69;5062672;28;20021;-69
2023/06/28 10:52:54;;;;;;;5.80;2.53;;;;;;;28.62;100.00;95339.56;5061481;28;20033;-71
2023/06/28 10:55:21;;;;;;;4.13;2.42;;;;;;;29.21;100.00;95375.50;5066802;28;20028;-70
2023/06/28 10:58:22;;;;;;;4.55;2.58;;;;;;;29.38;100.00;95422.16;5059261;28;20058;-71
2023/06/28 11:00:50;;;;;;;3.83;2.40;;;;;;;28.99;100.00;95390.09;5063607;28;20044;-71
2023/06/28 11:03:18;;;;;;;3.90;2.15;;;;;;;28.91;100.00;95336.44;5069659;28;20033;-71
2023/06/28 11:05:56;;;;;;;3.97;2.40;;;;;;;28.52;100.00;95338.47;5068533;28;20037;-71
2023/06/28 11:08:36;;;;;;;6.22;2.65;;;;;;;29.06;100.00;95366.25;5068276;28;20098;-71
2023/06/28 11:11:01;;;;;;;3.60;2.53;;;;;;;29.03;100.00;95374.91;5070196;28;20028;-71
2023/06/28 11:13:39;;;;;;;3.75;2.50;;;;;;;29.24;100.00;95462.53;5062476;28;20021;-71
2023/06/28 11:16:16;;;;;;;3.00;2.70;;;;;;;29.52;100.00;95486.75;5061065;28;20598;-71
2023/06/28 11:18:41;;;;;;;2.70;2.50;;;;;;;29.34;100.00;95472.56;5071646;28;20441;-71
2023/06/28 11:21:14;;;;;;;4.90;2.67;;;;;;;29.15;100.00;95486.59;5070467;28;20033;-71